sensor_id;sensor_type;location;lat;lon;timestamp;P1;durP1;ratioP1;P2;durP2;ratioP2
61709;SDS011;73500;51.494;5.386;2024-01-30T00:01:35;4.95;;;2.72;;
61709;SDS011;73500;51.494;5.386;2024-01-30T00:04:00;4.53;;;2.70;;
61709;SDS011;73500;51.494;5.386;2024-01-30T00:06:26;5.10;;;3.20;;
61709;SDS011;73500;51.494;5.386;2024-01-30T00:08:51;5.38;;;2.80;;
61709;SDS011;73500;51.494;5.386;2024-01-30T00:11:16;4.63;;;3.05;;
61709;SDS011;73500;51.494;5.386;2024-01-30T00:13:41;4.07;;;2.60;;
61709;SDS011;73500;51.494;5.386;2024-01-30T00:16:07;4.70;;;2.80;;
61709;SDS011;73500;51.494;5.386;2024-01-30T00:18:34;4.50;;;2.78;;
61709;SDS011;73500;51.494;5.386;2024-01-30T00:20:59;5.57;;;3.03;;
61709;SDS011;73500;51.494;5.386;2024-01-30T00:23:24;5.05;;;3.10;;
61709;SDS011;73500;51.494;5.386;2024-01-30T00:25:50;5.05;;;3.08;;
61709;SDS011;73500;51.494;5.386;2024-01-30T00:28:15;5.68;;;3.30;;
61709;SDS011;73500;51.494;5.386;2024-01-30T00:30:41;5.70;;;2.97;;
61709;SDS011;73500;51.494;5.386;2024-01-30T00:33:06;5.53;;;2.95;;
61709;SDS011;73500;51.494;5.386;2024-01-30T00:35:32;4.65;;;2.83;;
61709;SDS011;73500;51.494;5.386;2024-01-30T00:37:58;5.18;;;3.05;;
61709;SDS011;73500;51.494;5.386;2024-01-30T00:40:23;5.38;;;3.08;;
61709;SDS011;73500;51.494;5.386;2024-01-30T00:42:48;5.00;;;2.80;;
61709;SDS011;73500;51.494;5.386;2024-01-30T00:45:14;4.70;;;2.90;;
61709;SDS011;73500;51.494;5.386;2024-01-30T00:47:40;4.60;;;2.72;;
61709;SDS011;73500;51.494;5.386;2024-01-30T00:50:06;4.55;;;2.80;;
61709;SDS011;73500;51.494;5.386;2024-01-30T00:52:31;5.20;;;3.20;;
61709;SDS011;73500;51.494;5.386;2024-01-30T00:54:58;5.43;;;3.15;;
61709;SDS011;73500;51.494;5.386;2024-01-30T00:57:23;5.68;;;2.80;;
61709;SDS011;73500;51.494;5.386;2024-01-30T00:59:49;5.38;;;2.70;;
61709;SDS011;73500;51.494;5.386;2024-01-30T01:02:14;4.18;;;2.70;;
61709;SDS011;73500;51.494;5.386;2024-01-30T01:04:42;4.55;;;3.00;;
61709;SDS011;73500;51.494;5.386;2024-01-30T01:07:07;4.65;;;3.05;;
61709;SDS011;73500;51.494;5.386;2024-01-30T01:09:33;5.90;;;3.08;;
61709;SDS011;73500;51.494;5.386;2024-01-30T01:11:58;5.15;;;2.92;;
61709;SDS011;73500;51.494;5.386;2024-01-30T01:14:23;5.68;;;2.70;;
61709;SDS011;73500;51.494;5.386;2024-01-30T01:16:49;5.75;;;2.78;;
61709;SDS011;73500;51.494;5.386;2024-01-30T01:19:14;5.55;;;3.13;;
61709;SDS011;73500;51.494;5.386;2024-01-30T01:21:39;4.70;;;2.72;;
61709;SDS011;73500;51.494;5.386;2024-01-30T01:24:05;4.65;;;2.85;;
61709;SDS011;73500;51.494;5.386;2024-01-30T01:26:30;4.57;;;2.90;;
61709;SDS011;73500;51.494;5.386;2024-01-30T01:28:55;4.85;;;3.15;;
61709;SDS011;73500;51.494;5.386;2024-01-30T01:31:21;5.65;;;3.03;;
61709;SDS011;73500;51.494;5.386;2024-01-30T01:33:49;4.45;;;2.75;;
61709;SDS011;73500;51.494;5.386;2024-01-30T01:36:14;4.47;;;2.67;;
61709;SDS011;73500;51.494;5.386;2024-01-30T01:38:40;4.55;;;2.75;;
61709;SDS011;73500;51.494;5.386;2024-01-30T01:41:05;5.72;;;2.80;;
61709;SDS011;73500;51.494;5.386;2024-01-30T01:43:30;5.80;;;2.70;;
61709;SDS011;73500;51.494;5.386;2024-01-30T01:45:56;4.90;;;2.88;;
61709;SDS011;73500;51.494;5.386;2024-01-30T01:48:21;5.82;;;2.80;;
61709;SDS011;73500;51.494;5.386;2024-01-30T01:50:46;5.13;;;3.38;;
61709;SDS011;73500;51.494;5.386;2024-01-30T01:53:12;4.45;;;2.58;;
61709;SDS011;73500;51.494;5.386;2024-01-30T01:55:38;5.68;;;2.95;;
61709;SDS011;73500;51.494;5.386;2024-01-30T01:58:03;5.07;;;2.90;;
61709;SDS011;73500;51.494;5.386;2024-01-30T02:00:29;4.47;;;2.70;;
61709;SDS011;73500;51.494;5.386;2024-01-30T02:02:56;4.72;;;2.85;;
61709;SDS011;73500;51.494;5.386;2024-01-30T02:05:21;5.65;;;3.03;;
61709;SDS011;73500;51.494;5.386;2024-01-30T02:07:47;4.70;;;2.90;;
61709;SDS011;73500;51.494;5.386;2024-01-30T02:10:12;5.55;;;2.90;;
61709;SDS011;73500;51.494;5.386;2024-01-30T02:12:38;4.72;;;2.80;;
61709;SDS011;73500;51.494;5.386;2024-01-30T02:15:03;5.30;;;2.90;;
61709;SDS011;73500;51.494;5.386;2024-01-30T02:17:30;4.70;;;2.70;;
61709;SDS011;73500;51.494;5.386;2024-01-30T02:19:55;5.18;;;3.08;;
61709;SDS011;73500;51.494;5.386;2024-01-30T02:22:20;4.82;;;2.80;;
61709;SDS011;73500;51.494;5.386;2024-01-30T02:24:47;4.45;;;2.75;;
61709;SDS011;73500;51.494;5.386;2024-01-30T02:27:12;4.72;;;2.70;;
61709;SDS011;73500;51.494;5.386;2024-01-30T02:29:37;4.85;;;2.90;;
61709;SDS011;73500;51.494;5.386;2024-01-30T02:32:03;4.63;;;2.90;;
61709;SDS011;73500;51.494;5.386;2024-01-30T02:34:28;4.80;;;3.15;;
61709;SDS011;73500;51.494;5.386;2024-01-30T02:36:54;4.40;;;2.70;;
61709;SDS011;73500;51.494;5.386;2024-01-30T02:39:19;4.57;;;2.60;;
61709;SDS011;73500;51.494;5.386;2024-01-30T02:41:44;4.50;;;2.53;;
61709;SDS011;73500;51.494;5.386;2024-01-30T02:44:10;4.18;;;2.58;;
61709;SDS011;73500;51.494;5.386;2024-01-30T02:46:35;4.90;;;2.90;;
61709;SDS011;73500;51.494;5.386;2024-01-30T02:49:00;4.95;;;2.80;;
61709;SDS011;73500;51.494;5.386;2024-01-30T02:51:25;4.40;;;2.58;;
61709;SDS011;73500;51.494;5.386;2024-01-30T02:53:51;4.13;;;2.38;;
61709;SDS011;73500;51.494;5.386;2024-01-30T02:56:16;5.10;;;2.90;;
61709;SDS011;73500;51.494;5.386;2024-01-30T02:58:41;5.22;;;3.08;;
61709;SDS011;73500;51.494;5.386;2024-01-30T03:01:07;4.40;;;2.70;;
61709;SDS011;73500;51.494;5.386;2024-01-30T03:03:32;4.47;;;2.78;;
61709;SDS011;73500;51.494;5.386;2024-01-30T03:06:00;4.95;;;2.50;;
61709;SDS011;73500;51.494;5.386;2024-01-30T03:08:25;4.45;;;2.63;;
61709;SDS011;73500;51.494;5.386;2024-01-30T03:10:50;5.65;;;2.95;;
61709;SDS011;73500;51.494;5.386;2024-01-30T03:13:16;4.75;;;3.00;;
61709;SDS011;73500;51.494;5.386;2024-01-30T03:15:41;4.95;;;2.50;;
61709;SDS011;73500;51.494;5.386;2024-01-30T03:18:06;4.15;;;2.38;;
61709;SDS011;73500;51.494;5.386;2024-01-30T03:20:32;4.55;;;2.70;;
61709;SDS011;73500;51.494;5.386;2024-01-30T03:22:59;5.03;;;3.10;;
61709;SDS011;73500;51.494;5.386;2024-01-30T03:25:24;4.55;;;2.95;;
61709;SDS011;73500;51.494;5.386;2024-01-30T03:27:50;5.50;;;3.05;;
61709;SDS011;73500;51.494;5.386;2024-01-30T03:30:16;5.03;;;2.53;;
61709;SDS011;73500;51.494;5.386;2024-01-30T03:32:41;4.85;;;2.65;;
61709;SDS011;73500;51.494;5.386;2024-01-30T03:35:06;4.43;;;2.72;;
61709;SDS011;73500;51.494;5.386;2024-01-30T03:37:32;5.05;;;2.83;;
61709;SDS011;73500;51.494;5.386;2024-01-30T03:39:57;5.20;;;2.80;;
61709;SDS011;73500;51.494;5.386;2024-01-30T03:42:22;4.85;;;2.75;;
61709;SDS011;73500;51.494;5.386;2024-01-30T03:44:48;4.63;;;2.60;;
61709;SDS011;73500;51.494;5.386;2024-01-30T03:47:13;4.90;;;2.90;;
61709;SDS011;73500;51.494;5.386;2024-01-30T03:49:38;6.15;;;2.75;;
61709;SDS011;73500;51.494;5.386;2024-01-30T03:52:04;5.25;;;2.80;;
61709;SDS011;73500;51.494;5.386;2024-01-30T03:54:29;5.30;;;2.80;;
61709;SDS011;73500;51.494;5.386;2024-01-30T03:56:54;4.60;;;2.40;;
61709;SDS011;73500;51.494;5.386;2024-01-30T03:59:20;5.28;;;2.60;;
61709;SDS011;73500;51.494;5.386;2024-01-30T04:01:49;5.10;;;2.70;;
61709;SDS011;73500;51.494;5.386;2024-01-30T04:04:15;5.50;;;2.80;;
61709;SDS011;73500;51.494;5.386;2024-01-30T04:06:40;5.45;;;2.75;;
61709;SDS011;73500;51.494;5.386;2024-01-30T04:09:05;4.10;;;2.50;;
61709;SDS011;73500;51.494;5.386;2024-01-30T04:11:30;4.35;;;2.50;;
61709;SDS011;73500;51.494;5.386;2024-01-30T04:13:56;4.85;;;2.80;;
61709;SDS011;73500;51.494;5.386;2024-01-30T04:16:21;4.22;;;2.83;;
61709;SDS011;73500;51.494;5.386;2024-01-30T04:18:47;4.80;;;2.80;;
61709;SDS011;73500;51.494;5.386;2024-01-30T04:21:13;5.80;;;2.70;;
61709;SDS011;73500;51.494;5.386;2024-01-30T04:23:39;4.40;;;2.60;;
61709;SDS011;73500;51.494;5.386;2024-01-30T04:26:05;4.70;;;2.58;;
61709;SDS011;73500;51.494;5.386;2024-01-30T04:28:30;5.45;;;2.80;;
61709;SDS011;73500;51.494;5.386;2024-01-30T04:30:55;4.15;;;2.38;;
61709;SDS011;73500;51.494;5.386;2024-01-30T04:33:21;5.70;;;3.13;;
61709;SDS011;73500;51.494;5.386;2024-01-30T04:35:46;5.75;;;2.80;;
61709;SDS011;73500;51.494;5.386;2024-01-30T04:38:11;4.57;;;2.63;;
61709;SDS011;73500;51.494;5.386;2024-01-30T04:40:37;4.60;;;2.60;;
61709;SDS011;73500;51.494;5.386;2024-01-30T04:43:02;5.25;;;2.72;;
61709;SDS011;73500;51.494;5.386;2024-01-30T04:45:27;4.40;;;2.70;;
61709;SDS011;73500;51.494;5.386;2024-01-30T04:47:52;5.07;;;2.67;;
61709;SDS011;73500;51.494;5.386;2024-01-30T04:50:18;5.07;;;2.67;;
61709;SDS011;73500;51.494;5.386;2024-01-30T04:52:44;4.82;;;2.88;;
61709;SDS011;73500;51.494;5.386;2024-01-30T04:55:09;4.75;;;2.70;;
61709;SDS011;73500;51.494;5.386;2024-01-30T04:57:34;4.60;;;2.75;;
61709;SDS011;73500;51.494;5.386;2024-01-30T04:59:59;5.30;;;2.53;;
61709;SDS011;73500;51.494;5.386;2024-01-30T05:02:25;3.80;;;2.30;;
61709;SDS011;73500;51.494;5.386;2024-01-30T05:04:50;4.30;;;2.50;;
61709;SDS011;73500;51.494;5.386;2024-01-30T05:07:15;4.55;;;2.53;;
61709;SDS011;73500;51.494;5.386;2024-01-30T05:09:41;4.93;;;2.50;;
61709;SDS011;73500;51.494;5.386;2024-01-30T05:12:06;4.60;;;2.50;;
61709;SDS011;73500;51.494;5.386;2024-01-30T05:14:32;4.78;;;2.95;;
61709;SDS011;73500;51.494;5.386;2024-01-30T05:16:57;5.22;;;2.70;;
61709;SDS011;73500;51.494;5.386;2024-01-30T05:19:22;4.07;;;2.38;;
61709;SDS011;73500;51.494;5.386;2024-01-30T05:21:48;4.57;;;2.55;;
61709;SDS011;73500;51.494;5.386;2024-01-30T05:24:14;4.60;;;2.63;;
61709;SDS011;73500;51.494;5.386;2024-01-30T05:26:39;4.90;;;2.78;;
61709;SDS011;73500;51.494;5.386;2024-01-30T05:29:05;4.38;;;2.67;;
61709;SDS011;73500;51.494;5.386;2024-01-30T05:31:31;4.70;;;2.88;;
61709;SDS011;73500;51.494;5.386;2024-01-30T05:33:56;4.90;;;2.85;;
61709;SDS011;73500;51.494;5.386;2024-01-30T05:36:21;4.80;;;2.70;;
61709;SDS011;73500;51.494;5.386;2024-01-30T05:38:47;4.38;;;2.38;;
61709;SDS011;73500;51.494;5.386;2024-01-30T05:41:12;4.82;;;2.67;;
61709;SDS011;73500;51.494;5.386;2024-01-30T05:43:37;4.50;;;2.47;;
61709;SDS011;73500;51.494;5.386;2024-01-30T05:46:03;5.38;;;2.58;;
61709;SDS011;73500;51.494;5.386;2024-01-30T05:48:28;4.40;;;2.50;;
61709;SDS011;73500;51.494;5.386;2024-01-30T05:50:53;4.20;;;2.55;;
61709;SDS011;73500;51.494;5.386;2024-01-30T05:53:19;6.10;;;2.70;;
61709;SDS011;73500;51.494;5.386;2024-01-30T05:55:45;4.93;;;2.70;;
61709;SDS011;73500;51.494;5.386;2024-01-30T05:58:10;4.45;;;2.40;;
61709;SDS011;73500;51.494;5.386;2024-01-30T06:00:36;4.20;;;2.28;;
61709;SDS011;73500;51.494;5.386;2024-01-30T06:03:01;4.80;;;2.55;;
61709;SDS011;73500;51.494;5.386;2024-01-30T06:05:27;4.50;;;2.42;;
61709;SDS011;73500;51.494;5.386;2024-01-30T06:07:52;3.95;;;2.17;;
61709;SDS011;73500;51.494;5.386;2024-01-30T06:10:18;3.95;;;2.10;;
61709;SDS011;73500;51.494;5.386;2024-01-30T06:12:44;4.05;;;2.22;;
61709;SDS011;73500;51.494;5.386;2024-01-30T06:15:09;4.25;;;2.33;;
61709;SDS011;73500;51.494;5.386;2024-01-30T06:17:35;3.97;;;2.25;;
61709;SDS011;73500;51.494;5.386;2024-01-30T06:20:00;3.65;;;2.10;;
61709;SDS011;73500;51.494;5.386;2024-01-30T06:22:25;3.38;;;2.08;;
61709;SDS011;73500;51.494;5.386;2024-01-30T06:24:50;3.17;;;1.80;;
61709;SDS011;73500;51.494;5.386;2024-01-30T06:27:16;3.90;;;2.28;;
61709;SDS011;73500;51.494;5.386;2024-01-30T06:29:42;4.18;;;2.20;;
61709;SDS011;73500;51.494;5.386;2024-01-30T06:32:08;3.83;;;2.00;;
61709;SDS011;73500;51.494;5.386;2024-01-30T06:34:33;4.18;;;2.20;;
61709;SDS011;73500;51.494;5.386;2024-01-30T06:36:58;3.90;;;1.95;;
61709;SDS011;73500;51.494;5.386;2024-01-30T06:39:24;3.60;;;2.00;;
61709;SDS011;73500;51.494;5.386;2024-01-30T06:41:50;3.50;;;1.88;;
61709;SDS011;73500;51.494;5.386;2024-01-30T06:44:15;3.90;;;2.05;;
61709;SDS011;73500;51.494;5.386;2024-01-30T06:46:40;3.60;;;1.70;;
61709;SDS011;73500;51.494;5.386;2024-01-30T06:49:06;3.35;;;1.80;;
61709;SDS011;73500;51.494;5.386;2024-01-30T06:51:31;4.78;;;2.03;;
61709;SDS011;73500;51.494;5.386;2024-01-30T06:53:56;4.35;;;2.17;;
61709;SDS011;73500;51.494;5.386;2024-01-30T06:56:22;4.03;;;1.90;;
61709;SDS011;73500;51.494;5.386;2024-01-30T06:58:50;4.20;;;2.13;;
61709;SDS011;73500;51.494;5.386;2024-01-30T07:01:16;4.00;;;2.20;;
61709;SDS011;73500;51.494;5.386;2024-01-30T07:03:42;5.05;;;2.15;;
61709;SDS011;73500;51.494;5.386;2024-01-30T07:06:07;4.00;;;2.15;;
61709;SDS011;73500;51.494;5.386;2024-01-30T07:08:33;4.78;;;2.20;;
61709;SDS011;73500;51.494;5.386;2024-01-30T07:10:59;4.45;;;2.10;;
61709;SDS011;73500;51.494;5.386;2024-01-30T07:13:24;4.55;;;2.30;;
61709;SDS011;73500;51.494;5.386;2024-01-30T07:15:50;3.90;;;2.00;;
61709;SDS011;73500;51.494;5.386;2024-01-30T07:18:15;4.03;;;2.30;;
61709;SDS011;73500;51.494;5.386;2024-01-30T07:20:40;4.35;;;2.22;;
61709;SDS011;73500;51.494;5.386;2024-01-30T07:23:11;3.67;;;2.00;;
61709;SDS011;73500;51.494;5.386;2024-01-30T07:25:41;3.67;;;1.90;;
61709;SDS011;73500;51.494;5.386;2024-01-30T07:28:07;4.07;;;2.00;;
61709;SDS011;73500;51.494;5.386;2024-01-30T07:30:34;3.80;;;1.80;;
61709;SDS011;73500;51.494;5.386;2024-01-30T07:33:00;5.65;;;2.03;;
61709;SDS011;73500;51.494;5.386;2024-01-30T07:35:25;3.33;;;1.70;;
61709;SDS011;73500;51.494;5.386;2024-01-30T07:37:50;3.90;;;2.00;;
61709;SDS011;73500;51.494;5.386;2024-01-30T07:40:16;3.60;;;1.80;;
61709;SDS011;73500;51.494;5.386;2024-01-30T07:42:42;4.07;;;1.95;;
61709;SDS011;73500;51.494;5.386;2024-01-30T07:45:07;3.60;;;1.85;;
61709;SDS011;73500;51.494;5.386;2024-01-30T07:47:33;4.35;;;2.03;;
61709;SDS011;73500;51.494;5.386;2024-01-30T07:49:58;5.63;;;2.20;;
61709;SDS011;73500;51.494;5.386;2024-01-30T07:52:24;3.90;;;2.15;;
61709;SDS011;73500;51.494;5.386;2024-01-30T07:54:49;4.35;;;2.10;;
61709;SDS011;73500;51.494;5.386;2024-01-30T07:57:15;5.07;;;2.28;;
61709;SDS011;73500;51.494;5.386;2024-01-30T07:59:44;4.15;;;2.10;;
61709;SDS011;73500;51.494;5.386;2024-01-30T08:02:11;5.38;;;2.55;;
61709;SDS011;73500;51.494;5.386;2024-01-30T08:04:37;4.75;;;2.50;;
61709;SDS011;73500;51.494;5.386;2024-01-30T08:07:02;5.05;;;2.30;;
61709;SDS011;73500;51.494;5.386;2024-01-30T08:09:28;4.80;;;2.28;;
61709;SDS011;73500;51.494;5.386;2024-01-30T08:11:53;4.07;;;1.90;;
61709;SDS011;73500;51.494;5.386;2024-01-30T08:14:18;5.10;;;2.42;;
61709;SDS011;73500;51.494;5.386;2024-01-30T08:16:43;5.65;;;2.50;;
61709;SDS011;73500;51.494;5.386;2024-01-30T08:19:09;5.30;;;2.22;;
61709;SDS011;73500;51.494;5.386;2024-01-30T08:21:34;5.80;;;2.03;;
61709;SDS011;73500;51.494;5.386;2024-01-30T08:24:02;3.38;;;2.00;;
61709;SDS011;73500;51.494;5.386;2024-01-30T08:26:28;6.25;;;2.65;;
61709;SDS011;73500;51.494;5.386;2024-01-30T08:28:54;4.75;;;2.00;;
61709;SDS011;73500;51.494;5.386;2024-01-30T08:31:19;5.53;;;2.25;;
61709;SDS011;73500;51.494;5.386;2024-01-30T08:33:44;7.05;;;2.00;;
61709;SDS011;73500;51.494;5.386;2024-01-30T08:36:10;6.32;;;2.30;;
61709;SDS011;73500;51.494;5.386;2024-01-30T08:38:35;5.68;;;2.50;;
61709;SDS011;73500;51.494;5.386;2024-01-30T08:41:00;4.35;;;2.03;;
61709;SDS011;73500;51.494;5.386;2024-01-30T08:43:26;3.95;;;2.08;;
61709;SDS011;73500;51.494;5.386;2024-01-30T08:45:51;6.10;;;2.40;;
61709;SDS011;73500;51.494;5.386;2024-01-30T08:48:16;5.55;;;2.20;;
61709;SDS011;73500;51.494;5.386;2024-01-30T08:50:42;3.72;;;2.10;;
61709;SDS011;73500;51.494;5.386;2024-01-30T08:53:08;5.32;;;2.42;;
61709;SDS011;73500;51.494;5.386;2024-01-30T08:55:33;3.90;;;2.00;;
61709;SDS011;73500;51.494;5.386;2024-01-30T08:57:58;5.68;;;2.03;;
61709;SDS011;73500;51.494;5.386;2024-01-30T09:00:24;5.25;;;2.13;;
61709;SDS011;73500;51.494;5.386;2024-01-30T09:02:49;4.43;;;2.20;;
61709;SDS011;73500;51.494;5.386;2024-01-30T09:05:15;4.85;;;2.30;;
61709;SDS011;73500;51.494;5.386;2024-01-30T09:07:40;4.95;;;2.50;;
61709;SDS011;73500;51.494;5.386;2024-01-30T09:10:06;5.63;;;2.47;;
61709;SDS011;73500;51.494;5.386;2024-01-30T09:12:31;4.30;;;2.35;;
61709;SDS011;73500;51.494;5.386;2024-01-30T09:14:57;3.85;;;2.35;;
61709;SDS011;73500;51.494;5.386;2024-01-30T09:17:22;4.47;;;2.20;;
61709;SDS011;73500;51.494;5.386;2024-01-30T09:19:47;4.13;;;2.20;;
61709;SDS011;73500;51.494;5.386;2024-01-30T09:22:13;5.65;;;2.50;;
61709;SDS011;73500;51.494;5.386;2024-01-30T09:24:38;4.72;;;2.30;;
61709;SDS011;73500;51.494;5.386;2024-01-30T09:27:03;4.10;;;2.25;;
61709;SDS011;73500;51.494;5.386;2024-01-30T09:29:29;4.22;;;2.25;;
61709;SDS011;73500;51.494;5.386;2024-01-30T09:31:54;4.65;;;2.40;;
61709;SDS011;73500;51.494;5.386;2024-01-30T09:34:20;4.40;;;2.10;;
61709;SDS011;73500;51.494;5.386;2024-01-30T09:36:45;5.00;;;2.22;;
61709;SDS011;73500;51.494;5.386;2024-01-30T09:39:11;6.57;;;2.22;;
61709;SDS011;73500;51.494;5.386;2024-01-30T09:41:40;5.55;;;2.35;;
61709;SDS011;73500;51.494;5.386;2024-01-30T09:44:38;5.63;;;2.33;;
61709;SDS011;73500;51.494;5.386;2024-01-30T09:47:08;4.72;;;2.30;;
61709;SDS011;73500;51.494;5.386;2024-01-30T09:49:34;5.28;;;2.40;;
61709;SDS011;73500;51.494;5.386;2024-01-30T09:52:01;4.47;;;2.15;;
61709;SDS011;73500;51.494;5.386;2024-01-30T09:54:29;5.38;;;2.05;;
61709;SDS011;73500;51.494;5.386;2024-01-30T09:56:56;4.70;;;2.10;;
61709;SDS011;73500;51.494;5.386;2024-01-30T09:59:22;4.60;;;2.15;;
61709;SDS011;73500;51.494;5.386;2024-01-30T10:01:47;5.30;;;2.30;;
61709;SDS011;73500;51.494;5.386;2024-01-30T10:04:12;4.50;;;2.33;;
61709;SDS011;73500;51.494;5.386;2024-01-30T10:06:38;4.78;;;1.88;;
61709;SDS011;73500;51.494;5.386;2024-01-30T10:09:05;4.82;;;2.35;;
61709;SDS011;73500;51.494;5.386;2024-01-30T10:11:30;4.13;;;2.10;;
61709;SDS011;73500;51.494;5.386;2024-01-30T10:13:55;4.75;;;2.30;;
61709;SDS011;73500;51.494;5.386;2024-01-30T10:16:21;4.07;;;2.30;;
61709;SDS011;73500;51.494;5.386;2024-01-30T10:18:46;3.65;;;2.13;;
61709;SDS011;73500;51.494;5.386;2024-01-30T10:21:12;4.30;;;2.40;;
61709;SDS011;73500;51.494;5.386;2024-01-30T10:23:37;4.32;;;2.20;;
61709;SDS011;73500;51.494;5.386;2024-01-30T10:26:07;4.80;;;2.42;;
61709;SDS011;73500;51.494;5.386;2024-01-30T10:28:33;3.63;;;2.05;;
61709;SDS011;73500;51.494;5.386;2024-01-30T10:30:58;4.20;;;2.00;;
61709;SDS011;73500;51.494;5.386;2024-01-30T10:33:25;6.13;;;2.45;;
61709;SDS011;73500;51.494;5.386;2024-01-30T10:35:52;3.92;;;1.85;;
61709;SDS011;73500;51.494;5.386;2024-01-30T10:38:22;4.93;;;2.40;;
61709;SDS011;73500;51.494;5.386;2024-01-30T10:40:51;4.82;;;1.98;;
61709;SDS011;73500;51.494;5.386;2024-01-30T10:43:21;4.80;;;2.33;;
61709;SDS011;73500;51.494;5.386;2024-01-30T10:45:48;4.47;;;2.10;;
61709;SDS011;73500;51.494;5.386;2024-01-30T10:48:15;4.20;;;2.10;;
61709;SDS011;73500;51.494;5.386;2024-01-30T10:50:43;4.60;;;2.00;;
61709;SDS011;73500;51.494;5.386;2024-01-30T10:53:10;4.15;;;2.13;;
61709;SDS011;73500;51.494;5.386;2024-01-30T10:55:36;4.28;;;2.13;;
61709;SDS011;73500;51.494;5.386;2024-01-30T10:58:03;4.70;;;2.20;;
61709;SDS011;73500;51.494;5.386;2024-01-30T11:00:29;5.28;;;2.40;;
61709;SDS011;73500;51.494;5.386;2024-01-30T11:02:54;3.92;;;2.08;;
61709;SDS011;73500;51.494;5.386;2024-01-30T11:05:23;4.43;;;2.13;;
61709;SDS011;73500;51.494;5.386;2024-01-30T11:07:51;4.60;;;2.10;;
61709;SDS011;73500;51.494;5.386;2024-01-30T11:10:17;4.20;;;2.20;;
61709;SDS011;73500;51.494;5.386;2024-01-30T11:12:42;5.90;;;2.55;;
61709;SDS011;73500;51.494;5.386;2024-01-30T11:15:09;5.25;;;2.42;;
61709;SDS011;73500;51.494;5.386;2024-01-30T11:20:11;4.70;;;2.25;;
61709;SDS011;73500;51.494;5.386;2024-01-30T11:22:40;7.28;;;2.53;;
61709;SDS011;73500;51.494;5.386;2024-01-30T11:25:06;4.97;;;2.30;;
61709;SDS011;73500;51.494;5.386;2024-01-30T11:27:36;4.95;;;2.38;;
61709;SDS011;73500;51.494;5.386;2024-01-30T11:30:02;4.65;;;2.42;;
61709;SDS011;73500;51.494;5.386;2024-01-30T11:32:28;6.05;;;2.70;;
61709;SDS011;73500;51.494;5.386;2024-01-30T11:34:54;4.53;;;2.38;;
61709;SDS011;73500;51.494;5.386;2024-01-30T11:37:20;7.20;;;2.83;;
61709;SDS011;73500;51.494;5.386;2024-01-30T11:39:49;4.57;;;2.33;;
61709;SDS011;73500;51.494;5.386;2024-01-30T11:42:15;6.22;;;2.70;;
61709;SDS011;73500;51.494;5.386;2024-01-30T11:44:45;4.68;;;2.33;;
61709;SDS011;73500;51.494;5.386;2024-01-30T11:47:12;4.47;;;2.20;;
61709;SDS011;73500;51.494;5.386;2024-01-30T11:49:37;4.50;;;2.35;;
61709;SDS011;73500;51.494;5.386;2024-01-30T11:52:03;4.80;;;2.53;;
61709;SDS011;73500;51.494;5.386;2024-01-30T11:54:29;5.57;;;2.33;;
61709;SDS011;73500;51.494;5.386;2024-01-30T11:56:54;4.35;;;2.33;;
61709;SDS011;73500;51.494;5.386;2024-01-30T11:59:19;4.88;;;2.30;;
61709;SDS011;73500;51.494;5.386;2024-01-30T12:01:44;4.60;;;2.10;;
61709;SDS011;73500;51.494;5.386;2024-01-30T12:04:10;4.68;;;2.17;;
61709;SDS011;73500;51.494;5.386;2024-01-30T12:06:35;4.68;;;2.42;;
61709;SDS011;73500;51.494;5.386;2024-01-30T12:09:02;4.75;;;2.30;;
61709;SDS011;73500;51.494;5.386;2024-01-30T12:11:42;4.53;;;2.30;;
61709;SDS011;73500;51.494;5.386;2024-01-30T12:14:09;5.28;;;2.10;;
61709;SDS011;73500;51.494;5.386;2024-01-30T12:16:35;5.05;;;2.00;;
61709;SDS011;73500;51.494;5.386;2024-01-30T12:19:00;4.65;;;1.98;;
61709;SDS011;73500;51.494;5.386;2024-01-30T12:21:27;3.50;;;2.08;;
61709;SDS011;73500;51.494;5.386;2024-01-30T12:23:53;5.35;;;2.17;;
61709;SDS011;73500;51.494;5.386;2024-01-30T12:26:18;4.75;;;2.15;;
61709;SDS011;73500;51.494;5.386;2024-01-30T12:28:49;5.10;;;2.20;;
61709;SDS011;73500;51.494;5.386;2024-01-30T12:31:15;5.28;;;2.42;;
61709;SDS011;73500;51.494;5.386;2024-01-30T12:33:40;4.30;;;1.95;;
61709;SDS011;73500;51.494;5.386;2024-01-30T12:36:06;3.90;;;1.83;;
61709;SDS011;73500;51.494;5.386;2024-01-30T12:38:31;4.82;;;1.80;;
61709;SDS011;73500;51.494;5.386;2024-01-30T12:40:57;4.43;;;1.67;;
61709;SDS011;73500;51.494;5.386;2024-01-30T12:43:25;4.60;;;2.00;;
61709;SDS011;73500;51.494;5.386;2024-01-30T12:45:54;4.68;;;1.90;;
61709;SDS011;73500;51.494;5.386;2024-01-30T12:48:19;3.83;;;1.75;;
61709;SDS011;73500;51.494;5.386;2024-01-30T12:50:44;4.23;;;1.57;;
61709;SDS011;73500;51.494;5.386;2024-01-30T12:53:10;3.78;;;1.55;;
61709;SDS011;73500;51.494;5.386;2024-01-30T12:55:35;5.03;;;1.90;;
61709;SDS011;73500;51.494;5.386;2024-01-30T12:58:00;3.38;;;1.40;;
61709;SDS011;73500;51.494;5.386;2024-01-30T13:00:26;4.60;;;1.67;;
61709;SDS011;73500;51.494;5.386;2024-01-30T13:02:52;6.65;;;1.50;;
61709;SDS011;73500;51.494;5.386;2024-01-30T13:05:17;3.97;;;1.73;;
61709;SDS011;73500;51.494;5.386;2024-01-30T13:07:43;3.22;;;1.30;;
61709;SDS011;73500;51.494;5.386;2024-01-30T13:10:08;3.88;;;1.50;;
61709;SDS011;73500;51.494;5.386;2024-01-30T13:12:34;3.97;;;1.40;;
61709;SDS011;73500;51.494;5.386;2024-01-30T13:14:59;3.45;;;1.50;;
61709;SDS011;73500;51.494;5.386;2024-01-30T13:17:29;2.90;;;1.35;;
61709;SDS011;73500;51.494;5.386;2024-01-30T13:19:54;4.13;;;1.35;;
61709;SDS011;73500;51.494;5.386;2024-01-30T13:22:20;3.35;;;1.40;;
61709;SDS011;73500;51.494;5.386;2024-01-30T13:24:46;2.08;;;1.10;;
61709;SDS011;73500;51.494;5.386;2024-01-30T13:27:12;3.67;;;1.40;;
61709;SDS011;73500;51.494;5.386;2024-01-30T13:29:37;3.35;;;1.15;;
61709;SDS011;73500;51.494;5.386;2024-01-30T13:32:03;3.57;;;1.40;;
61709;SDS011;73500;51.494;5.386;2024-01-30T13:34:28;2.92;;;1.30;;
61709;SDS011;73500;51.494;5.386;2024-01-30T13:36:53;3.72;;;1.40;;
61709;SDS011;73500;51.494;5.386;2024-01-30T13:39:19;3.88;;;1.33;;
61709;SDS011;73500;51.494;5.386;2024-01-30T13:41:44;4.05;;;1.60;;
61709;SDS011;73500;51.494;5.386;2024-01-30T13:44:10;2.30;;;1.13;;
61709;SDS011;73500;51.494;5.386;2024-01-30T13:46:36;2.83;;;1.40;;
61709;SDS011;73500;51.494;5.386;2024-01-30T13:49:01;4.18;;;1.30;;
61709;SDS011;73500;51.494;5.386;2024-01-30T13:51:27;3.35;;;1.20;;
61709;SDS011;73500;51.494;5.386;2024-01-30T13:53:52;3.40;;;1.20;;
61709;SDS011;73500;51.494;5.386;2024-01-30T13:56:19;3.05;;;1.27;;
61709;SDS011;73500;51.494;5.386;2024-01-30T13:58:44;3.50;;;1.10;;
61709;SDS011;73500;51.494;5.386;2024-01-30T14:01:10;2.38;;;1.17;;
61709;SDS011;73500;51.494;5.386;2024-01-30T14:03:35;3.55;;;1.55;;
61709;SDS011;73500;51.494;5.386;2024-01-30T14:06:00;4.47;;;1.25;;
61709;SDS011;73500;51.494;5.386;2024-01-30T14:08:26;4.07;;;1.30;;
61709;SDS011;73500;51.494;5.386;2024-01-30T14:10:53;2.88;;;1.15;;
61709;SDS011;73500;51.494;5.386;2024-01-30T14:13:19;3.47;;;1.15;;
61709;SDS011;73500;51.494;5.386;2024-01-30T14:15:44;3.92;;;1.25;;
61709;SDS011;73500;51.494;5.386;2024-01-30T14:18:10;5.13;;;1.20;;
61709;SDS011;73500;51.494;5.386;2024-01-30T14:20:36;3.92;;;1.00;;
61709;SDS011;73500;51.494;5.386;2024-01-30T14:23:01;3.53;;;1.10;;
61709;SDS011;73500;51.494;5.386;2024-01-30T14:25:26;4.25;;;1.20;;
61709;SDS011;73500;51.494;5.386;2024-01-30T14:27:52;2.38;;;1.20;;
61709;SDS011;73500;51.494;5.386;2024-01-30T14:30:17;4.28;;;1.23;;
61709;SDS011;73500;51.494;5.386;2024-01-30T14:32:42;3.20;;;1.02;;
61709;SDS011;73500;51.494;5.386;2024-01-30T14:35:09;6.32;;;1.48;;
61709;SDS011;73500;51.494;5.386;2024-01-30T14:37:35;3.13;;;1.20;;
61709;SDS011;73500;51.494;5.386;2024-01-30T14:40:02;2.65;;;1.15;;
61709;SDS011;73500;51.494;5.386;2024-01-30T14:42:28;2.35;;;0.90;;